Perth, United Kingdom
Current Conditions -  °F | °C
As of 1:20 PM on Tuesday 21 Oct 2014 (Local Time) from EGPN Reporting Station
Rain Showers Rain Showers  
Wind Chill: 50°   Ceiling: Unl
Heat Index: 50°   Visibility: 6mi
Dew Point: 36°   Wind: 21mph
Humidity: 58%   Direction: 290°WNW
Pressure: 29.41"   Gusts: 35mph
Location:  56.42°N, 3.46°W
Report Text: EGPN 211220Z 29018G30KT 250V330 9999 -SHRA FEW033 SCT045 10/02 Q0996
Loading
Personal Weather Stations






























Interactive Weather Map
Tropical Storm Tracking
New forecast layout! Learn more

10-Day Weather Forecast

Advertisements
Track Severe Weather on mobile